Time;durP1;ratioP1;P1;durP2;ratioP2;P2;SDS_P1;SDS_P2;PMS_P1;PMS_P2;Temp;Humidity;BMP_temperature;BMP_pressure;BME280_temperature;BME280_humidity;BME280_pressure;Samples;Min_cycle;Max_cycle;Signal;HPM_P1;HPM_P2
2022/03/05 00:00:08;;;;;;;12.60;6.05;;;0.80;99.90;;;;;;5053928;28;20189;-63
2022/03/05 00:02:34;;;;;;;14.63;7.35;;;0.70;99.90;;;;;;5053827;28;20170;-63
2022/03/05 00:05:00;;;;;;;13.30;6.15;;;0.70;99.90;;;;;;5053529;28;20278;-63
2022/03/05 00:07:26;;;;;;;12.35;6.35;;;0.70;99.90;;;;;;5053506;28;20177;-63
2022/03/05 00:09:51;;;;;;;14.25;6.85;;;0.70;99.90;;;;;;5053672;28;20190;-63
2022/03/05 00:12:17;;;;;;;13.60;6.18;;;0.70;99.90;;;;;;5053596;28;20637;-62
2022/03/05 00:14:42;;;;;;;11.38;6.47;;;0.70;99.90;;;;;;5052864;28;20257;-63
2022/03/05 00:17:08;;;;;;;15.63;6.93;;;0.70;99.90;;;;;;5053372;28;20201;-63
2022/03/05 00:19:33;;;;;;;13.05;6.80;;;0.70;99.90;;;;;;5052904;28;20701;-62
2022/03/05 00:22:01;;;;;;;12.85;6.30;;;0.70;99.90;;;;;;5053782;28;20169;-62
2022/03/05 00:24:27;;;;;;;11.40;6.53;;;0.70;99.90;;;;;;5055328;28;20174;-63
2022/03/05 00:26:54;;;;;;;12.32;6.60;;;0.70;99.90;;;;;;5054083;28;20186;-63
2022/03/05 00:29:19;;;;;;;14.77;6.50;;;0.70;99.90;;;;;;5064697;28;20177;-63
2022/03/05 00:31:45;;;;;;;13.50;5.97;;;0.60;99.90;;;;;;5059137;28;20319;-62
2022/03/05 00:34:10;;;;;;;13.70;6.57;;;0.60;99.90;;;;;;5053030;28;20197;-63
2022/03/05 00:36:37;;;;;;;13.07;6.93;;;0.60;99.90;;;;;;5052701;28;20181;-62
2022/03/05 00:39:04;;;;;;;12.32;6.07;;;0.60;99.90;;;;;;5052269;28;20213;-62
2022/03/05 00:41:29;;;;;;;12.88;6.68;;;0.60;99.90;;;;;;5052796;28;20567;-62
2022/03/05 00:43:55;;;;;;;16.00;6.68;;;0.60;99.90;;;;;;5051534;28;20181;-62
2022/03/05 00:46:20;;;;;;;12.15;6.50;;;0.60;99.90;;;;;;5052602;28;20181;-62
2022/03/05 00:48:46;;;;;;;12.93;6.50;;;0.60;99.90;;;;;;5053006;28;20237;-62
2022/03/05 00:51:12;;;;;;;17.52;6.97;;;0.60;99.90;;;;;;5052983;28;20177;-62
2022/03/05 00:53:37;;;;;;;15.55;6.95;;;0.60;99.90;;;;;;5052171;28;20268;-62
2022/03/05 00:56:03;;;;;;;11.43;6.45;;;0.50;99.90;;;;;;5052507;28;20181;-62
2022/03/05 00:58:29;;;;;;;11.18;6.75;;;0.50;99.90;;;;;;5052135;28;20221;-62
2022/03/05 01:00:54;;;;;;;11.60;5.85;;;0.40;99.90;;;;;;5051815;28;20212;-62
2022/03/05 01:03:20;;;;;;;12.07;6.45;;;0.40;99.90;;;;;;5052152;28;20347;-62
2022/03/05 01:05:45;;;;;;;13.32;6.88;;;0.40;99.90;;;;;;5052068;28;20201;-62
2022/03/05 01:08:12;;;;;;;11.82;6.15;;;0.40;99.90;;;;;;5052032;28;20552;-62
2022/03/05 01:10:37;;;;;;;12.53;6.80;;;0.40;99.90;;;;;;5051892;28;20189;-62
2022/03/05 01:13:03;;;;;;;12.60;6.35;;;0.30;99.90;;;;;;5051980;28;20238;-62
2022/03/05 01:15:29;;;;;;;13.32;6.85;;;0.30;99.90;;;;;;5052111;28;20254;-62
2022/03/05 01:17:54;;;;;;;12.73;6.68;;;0.30;99.90;;;;;;5051881;28;20259;-62
2022/03/05 01:20:20;;;;;;;14.48;7.00;;;0.30;99.90;;;;;;5051820;28;20174;-62
2022/03/05 01:22:45;;;;;;;12.63;6.13;;;0.30;99.90;;;;;;5050793;28;20193;-62
2022/03/05 01:25:11;;;;;;;12.48;5.97;;;0.20;99.90;;;;;;5057209;28;20185;-63
2022/03/05 01:27:36;;;;;;;13.20;6.60;;;0.20;99.90;;;;;;5051537;28;20262;-62
2022/03/05 01:30:03;;;;;;;12.32;6.50;;;0.20;99.90;;;;;;5051860;28;20311;-62
2022/03/05 01:32:28;;;;;;;12.43;6.28;;;0.20;99.90;;;;;;5051964;28;20632;-62
2022/03/05 01:34:54;;;;;;;13.20;6.73;;;0.10;99.90;;;;;;5051605;28;20186;-61
2022/03/05 01:37:19;;;;;;;17.37;7.03;;;0.10;99.90;;;;;;5051476;28;20201;-61
2022/03/05 01:39:45;;;;;;;12.43;6.65;;;0.10;99.90;;;;;;5050279;28;20284;-62
2022/03/05 01:42:10;;;;;;;13.02;6.63;;;0.00;99.90;;;;;;5051836;28;20190;-62
2022/03/05 01:44:36;;;;;;;15.98;6.90;;;0.00;99.90;;;;;;5051241;28;20193;-61
2022/03/05 01:47:04;;;;;;;15.07;7.07;;;0.00;99.90;;;;;;5051439;28;20178;-62
2022/03/05 01:49:29;;;;;;;15.13;5.68;;;0.00;99.90;;;;;;5051453;28;20247;-62
2022/03/05 01:51:56;;;;;;;11.27;6.15;;;0.00;99.90;;;;;;5051941;28;20213;-63
2022/03/05 01:54:23;;;;;;;11.88;5.90;;;0.00;99.90;;;;;;5051200;28;20196;-63
2022/03/05 01:56:48;;;;;;;13.48;6.18;;;0.10;99.90;;;;;;5051272;28;20170;-62
2022/03/05 01:59:15;;;;;;;10.85;6.35;;;0.10;99.90;;;;;;5051816;28;20185;-62
2022/03/05 02:01:40;;;;;;;12.18;6.30;;;0.00;99.90;;;;;;5051416;28;20181;-62
2022/03/05 02:04:06;;;;;;;12.77;6.57;;;0.10;99.90;;;;;;5051023;28;20221;-63
2022/03/05 02:06:32;;;;;;;12.90;6.07;;;0.00;99.90;;;;;;5051629;28;20185;-62
2022/03/05 02:08:57;;;;;;;12.57;6.32;;;0.00;99.90;;;;;;5051344;28;20559;-63
2022/03/05 02:11:24;;;;;;;11.75;5.85;;;0.00;99.90;;;;;;5051451;28;20181;-62
2022/03/05 02:13:50;;;;;;;14.68;6.70;;;-0.10;99.90;;;;;;5051097;28;20173;-62
2022/03/05 02:16:15;;;;;;;10.80;6.28;;;0.00;99.90;;;;;;5051625;28;20226;-62
2022/03/05 02:18:49;;;;;;;12.90;6.47;;;-0.10;99.90;;;;;;5051142;28;20217;-62
2022/03/05 02:21:16;;;;;;;12.55;6.93;;;-0.10;99.90;;;;;;5049684;28;20231;-62
2022/03/05 02:23:42;;;;;;;11.50;6.30;;;-0.10;99.90;;;;;;5050990;28;20213;-63
2022/03/05 02:26:08;;;;;;;12.20;6.25;;;-0.10;99.90;;;;;;5054738;28;20551;-62
2022/03/05 02:28:36;;;;;;;15.20;6.53;;;-0.10;99.90;;;;;;5051001;28;20181;-62
2022/03/05 02:31:02;;;;;;;11.57;5.53;;;-0.20;99.90;;;;;;5051473;28;20259;-62
2022/03/05 02:33:27;;;;;;;12.93;6.22;;;-0.20;99.90;;;;;;5051066;28;20656;-62
2022/03/05 02:35:54;;;;;;;14.10;6.72;;;-0.20;99.90;;;;;;5051100;28;20307;-62
2022/03/05 02:38:22;;;;;;;11.77;6.05;;;-0.20;99.90;;;;;;5050915;28;20213;-62
2022/03/05 02:40:49;;;;;;;14.40;6.93;;;-0.30;99.90;;;;;;5050631;28;20177;-63
2022/03/05 02:43:15;;;;;;;13.10;6.75;;;-0.30;99.90;;;;;;5050895;28;20661;-62
2022/03/05 02:45:41;;;;;;;14.05;5.85;;;-0.30;99.90;;;;;;5051183;28;20188;-62
2022/03/05 02:48:11;;;;;;;13.40;6.40;;;-0.30;99.90;;;;;;5051266;28;20231;-62
2022/03/05 02:50:36;;;;;;;15.05;6.50;;;-0.40;99.90;;;;;;5050281;28;20181;-62
2022/03/05 02:53:03;;;;;;;12.73;6.43;;;-0.40;99.90;;;;;;5051133;28;20181;-62
2022/03/05 02:55:28;;;;;;;13.50;6.40;;;-0.50;99.90;;;;;;5051133;28;20243;-62
2022/03/05 02:57:54;;;;;;;23.55;6.45;;;-0.50;99.90;;;;;;5050924;28;20648;-61
2022/03/05 03:00:20;;;;;;;12.93;6.40;;;-0.50;99.90;;;;;;5050841;28;20331;-61
2022/03/05 03:02:45;;;;;;;12.93;6.38;;;-0.50;99.90;;;;;;5050588;28;20308;-62
2022/03/05 03:05:12;;;;;;;13.25;6.57;;;-0.60;99.90;;;;;;5051116;28;20277;-61
2022/03/05 03:07:38;;;;;;;11.40;6.07;;;-0.60;99.90;;;;;;5051529;28;20235;-61
2022/03/05 03:10:05;;;;;;;14.37;6.83;;;-0.60;99.90;;;;;;5054050;28;20336;-61
2022/03/05 03:12:31;;;;;;;12.63;6.63;;;-0.60;99.90;;;;;;5054377;28;20215;-61
2022/03/05 03:14:57;;;;;;;12.68;6.70;;;-0.60;99.90;;;;;;5054699;28;20252;-61
2022/03/05 03:17:23;;;;;;;15.67;7.60;;;-0.60;99.90;;;;;;5054099;28;20205;-61
2022/03/05 03:19:49;;;;;;;17.53;7.53;;;-0.60;99.90;;;;;;5049232;28;20188;-61
2022/03/05 03:22:14;;;;;;;14.48;7.03;;;-0.70;99.90;;;;;;5053780;28;20181;-61
2022/03/05 03:24:41;;;;;;;17.10;7.10;;;-0.70;99.90;;;;;;5058350;28;20180;-61
2022/03/05 03:27:07;;;;;;;12.93;6.43;;;-0.70;99.90;;;;;;5054463;28;20185;-62
2022/03/05 03:29:33;;;;;;;12.10;6.60;;;-0.70;99.90;;;;;;5053768;28;20247;-62
2022/03/05 03:31:58;;;;;;;14.90;7.17;;;-0.70;99.90;;;;;;5053862;28;20177;-61
2022/03/05 03:34:24;;;;;;;14.07;6.53;;;-0.70;99.90;;;;;;5054097;28;20189;-61
2022/03/05 03:36:49;;;;;;;13.97;7.03;;;-0.80;99.90;;;;;;5052548;28;20181;-61
2022/03/05 03:39:16;;;;;;;15.93;7.47;;;-0.80;99.90;;;;;;5053658;28;20193;-61
2022/03/05 03:41:42;;;;;;;17.07;7.30;;;-0.80;99.90;;;;;;5053686;28;20696;-61
2022/03/05 03:44:07;;;;;;;14.07;7.50;;;-0.80;99.90;;;;;;5052795;28;20225;-61
2022/03/05 03:46:33;;;;;;;12.27;6.53;;;-0.80;99.90;;;;;;5053837;28;20189;-61
2022/03/05 03:48:59;;;;;;;16.47;7.47;;;-0.80;99.90;;;;;;5053711;28;20185;-61
2022/03/05 03:51:24;;;;;;;13.20;6.77;;;-0.80;99.90;;;;;;5054059;28;20247;-61
2022/03/05 03:53:50;;;;;;;14.27;7.03;;;-0.80;99.90;;;;;;5053882;28;20546;-61
2022/03/05 03:56:16;;;;;;;14.88;7.22;;;-0.80;99.90;;;;;;5053412;28;20196;-61
2022/03/05 03:58:42;;;;;;;13.82;7.43;;;-0.80;99.90;;;;;;5053464;28;20547;-61
2022/03/05 04:01:07;;;;;;;13.83;7.20;;;-0.80;99.90;;;;;;5053964;28;20178;-61
2022/03/05 04:03:33;;;;;;;20.30;7.40;;;-0.80;99.90;;;;;;5052927;28;20221;-61
2022/03/05 04:05:58;;;;;;;15.18;6.43;;;-0.80;99.90;;;;;;5053464;28;20182;-61
2022/03/05 04:08:42;;;;;;;15.73;7.17;;;-0.80;99.90;;;;;;5053502;28;20189;-61
2022/03/05 04:11:12;;;;;;;14.27;6.30;;;-0.80;99.90;;;;;;5050555;28;20185;-61
2022/03/05 04:13:38;;;;;;;14.83;7.20;;;-0.90;99.90;;;;;;5053131;28;20192;-61
2022/03/05 04:16:05;;;;;;;16.37;7.67;;;-0.90;99.90;;;;;;5053359;28;20178;-61
2022/03/05 04:18:30;;;;;;;14.98;7.50;;;-0.90;99.90;;;;;;5052669;28;20210;-61
2022/03/05 04:20:56;;;;;;;16.27;7.27;;;-1.00;99.90;;;;;;5052666;28;20527;-61
2022/03/05 04:23:22;;;;;;;14.40;7.40;;;-1.00;99.90;;;;;;5052965;28;20217;-61
2022/03/05 04:25:47;;;;;;;18.23;7.57;;;-1.00;99.90;;;;;;5059337;28;20186;-61
2022/03/05 04:28:13;;;;;;;15.30;6.93;;;-0.90;99.90;;;;;;5053239;28;20603;-61
2022/03/05 04:30:39;;;;;;;15.47;7.23;;;-1.00;99.90;;;;;;5051608;28;20652;-61
2022/03/05 04:33:04;;;;;;;15.43;7.40;;;-1.00;99.90;;;;;;5052791;28;20235;-61
2022/03/05 04:35:30;;;;;;;16.67;7.63;;;-1.00;99.90;;;;;;5052670;28;20211;-61
2022/03/05 04:37:55;;;;;;;15.10;7.73;;;-1.00;99.90;;;;;;5052011;28;20252;-61
2022/03/05 04:40:22;;;;;;;16.17;7.43;;;-1.00;99.90;;;;;;5052205;28;20236;-61
2022/03/05 04:42:48;;;;;;;15.73;7.33;;;-1.00;99.90;;;;;;5052363;28;20272;-61
2022/03/05 04:45:14;;;;;;;14.93;7.17;;;-1.00;99.90;;;;;;5050974;28;20257;-61
2022/03/05 04:47:40;;;;;;;14.53;7.77;;;-1.00;99.90;;;;;;5052775;28;20185;-61
2022/03/05 04:50:07;;;;;;;14.90;7.20;;;-1.00;99.90;;;;;;5052745;28;20231;-61
2022/03/05 04:52:34;;;;;;;14.23;7.40;;;-1.00;99.90;;;;;;5052092;28;20254;-61
2022/03/05 04:54:59;;;;;;;18.40;7.33;;;-1.00;99.90;;;;;;5052386;28;20182;-61
2022/03/05 04:57:25;;;;;;;15.80;7.33;;;-1.00;99.90;;;;;;5052567;28;20228;-61
2022/03/05 04:59:51;;;;;;;13.77;6.93;;;-1.00;99.90;;;;;;5052314;28;20275;-61
2022/03/05 05:02:17;;;;;;;13.73;7.03;;;-1.00;99.90;;;;;;5051878;28;20181;-61
2022/03/05 05:04:42;;;;;;;11.57;6.87;;;-1.10;99.90;;;;;;5052071;28;20797;-60
2022/03/05 05:07:08;;;;;;;17.87;7.97;;;-1.10;99.90;;;;;;5052360;28;20181;-61
2022/03/05 05:09:33;;;;;;;14.23;7.17;;;-1.10;99.90;;;;;;5051816;28;20200;-61
2022/03/05 05:11:59;;;;;;;15.53;7.77;;;-1.10;99.90;;;;;;5052510;28;20205;-61
2022/03/05 05:14:24;;;;;;;18.00;7.65;;;-1.10;99.90;;;;;;5051810;28;20185;-61
2022/03/05 05:16:50;;;;;;;17.87;7.70;;;-1.10;99.90;;;;;;5052224;28;20178;-61
2022/03/05 05:19:24;;;;;;;26.60;10.40;;;-1.10;99.90;;;;;;5052181;28;20255;-60
2022/03/05 05:21:54;;;;;;;25.03;10.00;;;-1.20;99.90;;;;;;5052060;28;20267;-61
2022/03/05 05:24:20;;;;;;;15.57;8.13;;;-1.20;99.90;;;;;;5058490;28;20663;-61
2022/03/05 05:26:46;;;;;;;18.63;9.07;;;-1.20;99.90;;;;;;5051724;28;20178;-61
2022/03/05 05:29:11;;;;;;;21.07;8.90;;;-1.20;99.90;;;;;;5040099;28;20186;-61
2022/03/05 05:31:37;;;;;;;17.27;8.60;;;-1.20;99.90;;;;;;5042517;28;20177;-61
2022/03/05 05:34:02;;;;;;;20.10;8.87;;;-1.20;99.90;;;;;;5051085;28;20213;-61
2022/03/05 05:36:28;;;;;;;19.77;10.87;;;-1.20;99.90;;;;;;5052023;28;20306;-61
2022/03/05 05:38:54;;;;;;;17.52;8.57;;;-1.20;99.90;;;;;;5047217;28;20278;-61
2022/03/05 05:41:19;;;;;;;20.67;9.40;;;-1.30;99.90;;;;;;5051372;28;20181;-61
2022/03/05 05:43:45;;;;;;;25.53;9.63;;;-1.30;99.90;;;;;;5049953;28;20185;-60
2022/03/05 05:46:11;;;;;;;19.10;9.20;;;-1.30;99.90;;;;;;5049127;28;20177;-61
2022/03/05 05:48:37;;;;;;;23.80;10.30;;;-1.30;99.90;;;;;;5039460;28;20544;-61
2022/03/05 05:51:03;;;;;;;18.73;8.33;;;-1.30;99.90;;;;;;5045728;28;20174;-60
2022/03/05 05:53:29;;;;;;;23.27;10.37;;;-1.30;99.90;;;;;;5051202;28;20203;-61
2022/03/05 05:55:56;;;;;;;21.17;9.67;;;-1.30;99.90;;;;;;5051158;28;20173;-61
2022/03/05 05:58:22;;;;;;;22.93;9.87;;;-1.30;99.90;;;;;;5051470;28;20209;-60
2022/03/05 06:00:48;;;;;;;25.93;10.13;;;-1.30;99.90;;;;;;5050866;28;20192;-60
2022/03/05 06:03:15;;;;;;;31.17;12.13;;;-1.30;99.90;;;;;;5051329;28;20224;-60
2022/03/05 06:05:40;;;;;;;23.25;10.32;;;-1.40;99.90;;;;;;5051325;28;20231;-61
2022/03/05 06:08:06;;;;;;;30.80;12.03;;;-1.40;99.90;;;;;;5051320;28;20185;-60
2022/03/05 06:10:32;;;;;;;26.13;11.37;;;-1.40;99.90;;;;;;5051308;28;20181;-61
2022/03/05 06:12:57;;;;;;;20.20;9.90;;;-1.30;99.90;;;;;;5051267;28;20196;-61
2022/03/05 06:15:23;;;;;;;42.40;15.37;;;-1.30;99.90;;;;;;5051122;28;20173;-61
2022/03/05 06:17:48;;;;;;;22.13;10.07;;;-1.30;99.90;;;;;;5051082;28;20572;-60
2022/03/05 06:20:14;;;;;;;22.33;9.83;;;-1.30;99.90;;;;;;5051132;28;20186;-60
2022/03/05 06:22:40;;;;;;;24.40;10.03;;;-1.30;99.90;;;;;;5051054;28;20177;-61
2022/03/05 06:25:06;;;;;;;25.07;10.10;;;-1.30;99.90;;;;;;5058562;28;20585;-60
2022/03/05 06:27:32;;;;;;;20.23;8.97;;;-1.30;99.90;;;;;;5058920;28;20652;-61
2022/03/05 06:29:58;;;;;;;23.50;10.10;;;-1.30;99.90;;;;;;5051109;28;20188;-60
2022/03/05 06:32:23;;;;;;;24.87;10.60;;;-1.30;99.90;;;;;;5049922;28;20272;-59
2022/03/05 06:34:49;;;;;;;40.93;15.23;;;-1.30;99.90;;;;;;5050358;28;20182;-59
2022/03/05 06:37:14;;;;;;;37.00;14.50;;;-1.30;99.90;;;;;;5050759;28;20217;-59
2022/03/05 06:39:40;;;;;;;32.30;12.10;;;-1.20;99.90;;;;;;5050948;28;20509;-58
2022/03/05 06:42:07;;;;;;;23.23;9.33;;;-1.20;99.90;;;;;;5051126;28;20216;-59
2022/03/05 06:44:33;;;;;;;20.30;9.40;;;-1.20;99.90;;;;;;5053846;28;20181;-58
2022/03/05 06:46:59;;;;;;;22.27;9.23;;;-1.20;99.90;;;;;;5054603;28;20186;-61
2022/03/05 06:49:25;;;;;;;21.97;9.03;;;-1.10;99.90;;;;;;5054744;28;20292;-58
2022/03/05 06:51:50;;;;;;;24.87;10.80;;;-1.10;99.90;;;;;;5054069;28;20177;-59
2022/03/05 06:54:16;;;;;;;18.40;9.63;;;-1.00;99.90;;;;;;5053367;28;20192;-58
2022/03/05 06:56:41;;;;;;;18.27;9.23;;;-1.00;99.90;;;;;;5054696;28;20178;-59
2022/03/05 06:59:07;;;;;;;21.10;9.53;;;-0.90;99.90;;;;;;5054542;28;20217;-58
2022/03/05 07:01:32;;;;;;;18.77;9.50;;;-0.80;99.90;;;;;;5054274;28;20606;-58
2022/03/05 07:03:58;;;;;;;21.25;9.15;;;-0.70;99.90;;;;;;5054444;28;20229;-58
2022/03/05 07:06:23;;;;;;;18.50;9.30;;;-0.50;99.90;;;;;;5054640;28;20523;-60
2022/03/05 07:08:49;;;;;;;18.83;8.73;;;-0.30;99.90;;;;;;5054526;28;20184;-60
2022/03/05 07:11:16;;;;;;;19.65;9.95;;;-0.10;99.90;;;;;;5054473;28;20201;-60
2022/03/05 07:13:41;;;;;;;26.48;12.45;;;0.20;99.90;;;;;;5053662;28;20605;-61
2022/03/05 07:16:07;;;;;;;18.95;9.75;;;0.40;99.90;;;;;;5052886;28;20190;-61
2022/03/05 07:18:32;;;;;;;20.10;9.82;;;0.60;99.90;;;;;;5054417;28;20263;-61
2022/03/05 07:20:58;;;;;;;19.20;9.30;;;0.80;99.90;;;;;;5053176;28;20247;-61
2022/03/05 07:23:24;;;;;;;16.85;8.60;;;1.00;99.90;;;;;;5054227;28;20231;-61
2022/03/05 07:25:50;;;;;;;17.60;8.68;;;1.20;99.90;;;;;;5057064;28;20216;-61
2022/03/05 07:28:15;;;;;;;16.38;9.18;;;1.40;99.90;;;;;;5054026;28;20299;-60
2022/03/05 07:30:42;;;;;;;16.83;8.23;;;1.60;99.90;;;;;;5054217;28;20174;-61
2022/03/05 07:33:08;;;;;;;19.27;8.77;;;1.70;99.90;;;;;;5054212;28;20204;-61
2022/03/05 07:35:33;;;;;;;18.23;8.75;;;1.90;99.90;;;;;;5052981;28;20181;-61
2022/03/05 07:37:59;;;;;;;21.65;10.27;;;2.10;99.90;;;;;;5053740;28;20215;-61
2022/03/05 07:40:25;;;;;;;18.73;9.93;;;2.40;99.90;;;;;;5051974;28;20186;-61
2022/03/05 07:42:50;;;;;;;15.90;8.27;;;2.70;99.90;;;;;;5054190;28;20660;-61
2022/03/05 07:45:16;;;;;;;19.63;9.57;;;2.90;99.90;;;;;;5051262;28;20185;-60
2022/03/05 07:47:41;;;;;;;17.65;9.70;;;3.20;99.80;;;;;;5053317;28;20581;-60
2022/03/05 07:50:07;;;;;;;17.17;8.50;;;3.50;99.50;;;;;;5053136;28;20603;-60
2022/03/05 07:52:33;;;;;;;19.52;9.85;;;3.80;98.90;;;;;;5053193;28;20178;-61
2022/03/05 07:54:59;;;;;;;19.27;9.05;;;4.10;98.00;;;;;;5053099;28;20181;-61
2022/03/05 07:57:24;;;;;;;18.08;8.50;;;4.40;97.10;;;;;;5053320;28;20668;-61
2022/03/05 07:59:50;;;;;;;18.45;9.07;;;4.60;96.60;;;;;;5053632;28;20534;-61
2022/03/05 08:02:15;;;;;;;14.60;8.05;;;4.70;95.30;;;;;;5054100;28;20186;-61
2022/03/05 08:04:47;;;;;;;16.40;9.00;;;5.00;95.00;;;;;;5053769;28;20230;-61
2022/03/05 08:07:13;;;;;;;16.63;9.20;;;5.10;94.40;;;;;;5053906;28;20483;-60
2022/03/05 08:09:41;;;;;;;15.73;8.80;;;5.30;93.90;;;;;;5053690;28;20173;-61
2022/03/05 08:12:07;;;;;;;16.55;9.23;;;5.50;93.30;;;;;;5053927;28;20192;-61
2022/03/05 08:14:32;;;;;;;20.15;10.27;;;5.60;93.00;;;;;;5053946;28;20215;-61
2022/03/05 08:16:58;;;;;;;19.73;10.38;;;5.80;92.20;;;;;;5053649;28;20177;-60
2022/03/05 08:19:23;;;;;;;18.50;9.90;;;5.90;91.30;;;;;;5053672;28;20224;-60
2022/03/05 08:21:49;;;;;;;15.10;8.07;;;6.10;91.40;;;;;;5053509;28;20223;-60
2022/03/05 08:24:14;;;;;;;17.65;9.55;;;6.30;90.70;;;;;;5053686;28;20178;-60
2022/03/05 08:26:40;;;;;;;16.23;9.20;;;6.50;90.80;;;;;;5053271;28;20181;-60
2022/03/05 08:29:06;;;;;;;16.48;8.95;;;7.10;90.50;;;;;;5053451;28;20181;-60
2022/03/05 08:31:31;;;;;;;16.98;9.15;;;7.50;87.70;;;;;;5053399;28;20260;-60
2022/03/05 08:34:03;;;;;;;15.55;9.35;;;7.60;84.20;;;;;;5053408;28;20630;-60
2022/03/05 08:36:29;;;;;;;19.30;11.20;;;7.60;82.60;;;;;;5053375;28;20181;-61
2022/03/05 08:38:56;;;;;;;18.27;9.95;;;7.60;82.40;;;;;;5053216;28;20308;-60
2022/03/05 08:41:21;;;;;;;15.60;9.10;;;7.70;82.00;;;;;;5053220;28;20177;-60
2022/03/05 08:43:47;;;;;;;18.13;10.10;;;7.70;81.40;;;;;;5053044;28;20207;-60
2022/03/05 08:46:13;;;;;;;18.90;11.52;;;7.70;82.10;;;;;;5053132;28;20170;-60
2022/03/05 08:48:38;;;;;;;22.23;12.48;;;8.00;82.00;;;;;;5052886;28;20177;-61
2022/03/05 08:51:04;;;;;;;17.65;10.82;;;8.50;80.80;;;;;;5053176;28;20169;-60
2022/03/05 08:53:30;;;;;;;16.08;8.48;;;8.60;77.80;;;;;;5052963;28;20213;-61
2022/03/05 08:55:56;;;;;;;18.60;9.57;;;8.80;74.50;;;;;;5052957;28;20243;-61
2022/03/05 08:58:21;;;;;;;19.88;10.52;;;9.00;73.20;;;;;;5052799;28;20275;-60
2022/03/05 09:00:48;;;;;;;25.88;13.90;;;9.10;70.80;;;;;;5052821;28;20181;-61
2022/03/05 09:03:15;;;;;;;18.95;10.60;;;9.30;69.20;;;;;;5052781;28;20213;-61
2022/03/05 09:05:41;;;;;;;16.60;10.00;;;9.30;67.70;;;;;;5052156;28;20169;-60
2022/03/05 09:08:07;;;;;;;17.80;9.38;;;9.30;67.00;;;;;;5052774;28;20181;-61
2022/03/05 09:10:33;;;;;;;16.58;8.77;;;9.30;66.70;;;;;;5052701;28;20215;-61
2022/03/05 09:12:59;;;;;;;19.55;10.27;;;9.20;65.50;;;;;;5051451;28;20212;-61
2022/03/05 09:15:25;;;;;;;16.17;8.55;;;9.00;66.80;;;;;;5052026;28;20181;-61
2022/03/05 09:17:51;;;;;;;14.52;8.93;;;9.00;66.70;;;;;;5051021;28;20213;-60
2022/03/05 09:20:17;;;;;;;21.13;10.10;;;9.00;66.10;;;;;;5052179;28;20691;-60
2022/03/05 09:22:42;;;;;;;18.00;10.13;;;8.80;66.20;;;;;;5051576;28;20260;-60
2022/03/05 09:25:09;;;;;;;17.38;8.90;;;8.90;69.10;;;;;;5051961;28;20183;-61
2022/03/05 09:27:34;;;;;;;16.00;8.43;;;9.10;69.20;;;;;;5032137;28;20174;-61
2022/03/05 09:30:00;;;;;;;14.88;8.50;;;9.20;66.60;;;;;;5037851;28;20223;-60
2022/03/05 09:32:26;;;;;;;15.43;8.82;;;9.40;67.00;;;;;;5051796;28;20170;-61
2022/03/05 09:34:52;;;;;;;13.73;7.70;;;9.50;66.20;;;;;;5051325;28;20286;-61
2022/03/05 09:37:17;;;;;;;14.40;8.38;;;9.60;65.30;;;;;;5048832;28;20636;-60
2022/03/05 09:39:43;;;;;;;16.17;8.93;;;9.40;63.60;;;;;;5053305;28;20185;-60
2022/03/05 09:42:08;;;;;;;17.20;8.68;;;9.40;63.50;;;;;;5054655;28;20196;-60
2022/03/05 09:44:35;;;;;;;18.98;9.75;;;9.20;63.50;;;;;;5051582;28;20195;-60
2022/03/05 09:47:01;;;;;;;16.35;9.23;;;9.00;63.30;;;;;;5052727;28;20181;-61
2022/03/05 09:49:28;;;;;;;16.40;8.75;;;8.80;64.20;;;;;;5041464;28;20190;-60
2022/03/05 09:51:54;;;;;;;15.85;7.78;;;8.70;63.50;;;;;;5050133;28;20192;-60
2022/03/05 09:54:20;;;;;;;15.73;8.93;;;8.50;63.00;;;;;;5069973;28;20493;-60
2022/03/05 09:56:46;;;;;;;12.63;7.60;;;8.30;63.10;;;;;;5042783;28;20269;-60
2022/03/05 09:59:11;;;;;;;15.38;8.65;;;8.20;63.30;;;;;;5047890;28;20684;-60
2022/03/05 10:01:38;;;;;;;15.15;8.38;;;8.20;63.20;;;;;;5051637;28;20264;-60
2022/03/05 10:04:04;;;;;;;15.85;7.90;;;8.10;63.50;;;;;;5051734;28;20221;-60
2022/03/05 10:06:29;;;;;;;13.02;7.05;;;8.20;64.00;;;;;;5051762;28;20276;-60
2022/03/05 10:08:56;;;;;;;15.75;8.43;;;8.30;63.70;;;;;;5051757;28;20170;-60
2022/03/05 10:11:36;;;;;;;13.93;7.75;;;8.50;63.90;;;;;;5053223;28;20184;-60
2022/03/05 10:14:14;;;;;;;15.85;9.27;;;8.50;62.60;;;;;;5067085;28;20169;-60
2022/03/05 10:16:40;;;;;;;15.60;8.98;;;8.60;63.40;;;;;;5052696;28;20170;-60
2022/03/05 10:19:17;;;;;;;12.85;7.57;;;8.80;64.70;;;;;;5055743;28;20252;-60
2022/03/05 10:22:03;;;;;;;14.93;7.75;;;8.90;63.20;;;;;;5055730;28;20235;-60
2022/03/05 10:24:34;;;;;;;14.18;7.72;;;8.80;61.70;;;;;;5055924;28;20223;-60
2022/03/05 10:27:00;;;;;;;13.63;7.80;;;8.70;61.80;;;;;;5055725;28;20166;-60
2022/03/05 10:29:34;;;;;;;13.65;7.72;;;8.60;62.00;;;;;;5055866;28;20232;-60
2022/03/05 10:32:03;;;;;;;15.05;7.28;;;8.60;61.50;;;;;;5055692;28;20176;-60
2022/03/05 10:34:42;;;;;;;13.10;7.05;;;8.70;63.20;;;;;;5055548;28;20181;-59
2022/03/05 10:37:08;;;;;;;12.75;7.63;;;8.90;61.30;;;;;;5055333;28;20174;-60
2022/03/05 10:39:33;;;;;;;15.40;8.10;;;9.00;61.40;;;;;;5054785;28;20617;-60
2022/03/05 10:41:59;;;;;;;16.27;8.45;;;9.20;62.20;;;;;;5055249;28;20249;-61
2022/03/05 10:44:25;;;;;;;15.52;8.57;;;9.40;60.60;;;;;;5054747;28;20264;-61
2022/03/05 10:47:03;;;;;;;12.32;7.30;;;9.40;62.00;;;;;;5067577;28;20608;-61
2022/03/05 10:49:37;;;;;;;13.63;7.30;;;9.60;59.50;;;;;;5053723;28;20260;-62
2022/03/05 10:52:02;;;;;;;12.35;6.88;;;9.80;57.20;;;;;;5054687;28;20174;-61
2022/03/05 10:54:30;;;;;;;14.32;8.10;;;10.00;56.80;;;;;;5054925;28;20181;-62
2022/03/05 10:56:56;;;;;;;15.20;8.27;;;10.10;56.30;;;;;;5055028;28;20264;-62
2022/03/05 10:59:22;;;;;;;13.13;7.40;;;10.20;55.40;;;;;;5054227;28;20247;-62
2022/03/05 11:01:48;;;;;;;16.95;8.82;;;10.00;55.10;;;;;;5054920;28;20293;-62
2022/03/05 11:04:14;;;;;;;10.20;6.18;;;9.90;56.80;;;;;;5054411;28;20637;-62
2022/03/05 11:06:42;;;;;;;10.23;6.20;;;9.70;55.00;;;;;;5054805;28;20201;-62
2022/03/05 11:09:11;;;;;;;11.15;6.57;;;9.70;53.30;;;;;;5054299;28;20193;-62
2022/03/05 11:11:39;;;;;;;13.55;7.28;;;10.00;52.40;;;;;;5054208;28;20174;-62
2022/03/05 11:14:06;;;;;;;18.75;9.57;;;10.20;53.50;;;;;;5054521;28;20178;-62
2022/03/05 11:16:32;;;;;;;11.35;6.60;;;10.30;54.20;;;;;;5053383;28;20193;-62
2022/03/05 11:18:58;;;;;;;11.18;6.88;;;10.20;54.00;;;;;;5054139;28;20296;-62
2022/03/05 11:21:25;;;;;;;8.07;5.45;;;10.30;53.90;;;;;;5054468;28;20213;-62
2022/03/05 11:23:51;;;;;;;9.05;4.80;;;10.40;53.70;;;;;;5054557;28;20193;-62
2022/03/05 11:26:17;;;;;;;8.30;3.92;;;10.50;50.70;;;;;;5054552;28;20190;-63
2022/03/05 11:28:48;;;;;;;7.55;4.40;;;10.50;45.80;;;;;;5051205;28;20198;-62
2022/03/05 11:31:22;;;;;;;6.55;3.83;;;10.40;46.00;;;;;;5054122;28;20177;-62
2022/03/05 11:33:49;;;;;;;6.97;4.10;;;10.30;47.30;;;;;;5053521;28;20272;-64
2022/03/05 11:36:35;;;;;;;7.57;3.95;;;10.50;46.10;;;;;;5054038;28;20257;-62
2022/03/05 11:39:27;;;;;;;7.20;4.38;;;10.60;46.10;;;;;;5053683;28;20259;-63
2022/03/05 11:42:03;;;;;;;7.45;4.45;;;10.90;46.20;;;;;;5053480;28;20173;-63
2022/03/05 11:44:44;;;;;;;9.25;4.82;;;10.80;44.60;;;;;;5054214;28;20169;-63
2022/03/05 11:47:21;;;;;;;8.18;4.70;;;10.50;44.20;;;;;;5054112;28;20173;-63
2022/03/05 11:49:56;;;;;;;7.03;4.32;;;10.20;45.10;;;;;;5051364;28;20181;-63
2022/03/05 11:52:22;;;;;;;6.85;3.70;;;10.10;44.90;;;;;;5059100;28;20185;-63
2022/03/05 11:55:13;;;;;;;7.82;3.90;;;10.10;44.80;;;;;;5053761;28;20268;-63
2022/03/05 11:57:42;;;;;;;8.40;4.85;;;10.20;44.50;;;;;;5053932;28;20311;-63
2022/03/05 12:00:08;;;;;;;8.82;4.53;;;10.20;44.90;;;;;;5053699;28;20735;-64
2022/03/05 12:02:38;;;;;;;8.68;4.70;;;10.10;44.90;;;;;;5056503;28;20188;-64
2022/03/05 12:05:04;;;;;;;10.30;5.20;;;10.10;44.90;;;;;;5053678;28;20275;-65
2022/03/05 12:07:36;;;;;;;8.80;4.65;;;10.10;45.30;;;;;;5053311;28;20178;-65
2022/03/05 12:10:11;;;;;;;8.85;4.70;;;10.40;44.70;;;;;;5053600;28;20184;-65
2022/03/05 12:12:57;;;;;;;8.70;5.13;;;10.30;44.40;;;;;;5053398;28;20259;-64
2022/03/05 12:15:32;;;;;;;8.98;5.07;;;10.20;45.60;;;;;;5053207;28;20189;-66
2022/03/05 12:17:58;;;;;;;8.20;5.20;;;10.20;45.60;;;;;;5052858;28;20549;-65
2022/03/05 12:20:36;;;;;;;8.35;5.45;;;10.30;45.70;;;;;;5053558;28;20239;-65
2022/03/05 12:23:06;;;;;;;7.90;5.28;;;10.20;45.00;;;;;;5047018;28;20177;-65
2022/03/05 12:25:34;;;;;;;10.55;5.47;;;9.80;45.70;;;;;;5052698;28;20185;-66
2022/03/05 12:28:00;;;;;;;8.55;5.20;;;9.40;46.50;;;;;;5053262;28;20456;-65
2022/03/05 12:30:31;;;;;;;7.93;5.22;;;9.30;46.90;;;;;;5053294;28;20509;-66
2022/03/05 12:33:10;;;;;;;8.55;5.57;;;9.10;47.00;;;;;;5053197;28;20319;-65
2022/03/05 12:35:37;;;;;;;9.60;5.00;;;9.00;48.50;;;;;;5053207;28;20250;-66
2022/03/05 12:38:04;;;;;;;6.88;4.55;;;9.10;48.80;;;;;;5053269;28;20574;-66